createdAt,value
2023-06-15T00:02:21.204Z,82.27
2023-06-15T00:05:06.615Z,82.79
2023-06-15T00:07:51.925Z,82.53
2023-06-15T00:10:37.425Z,82.02
2023-06-15T00:13:22.841Z,81.87
2023-06-15T00:16:08.440Z,83.42
2023-06-15T00:18:53.683Z,82.97
2023-06-15T00:21:39.052Z,85.42
2023-06-15T00:24:24.489Z,87.42
2023-06-15T00:27:10.593Z,89.27
2023-06-15T00:29:55.718Z,88.93
2023-06-15T00:32:41.220Z,86.89
2023-06-15T00:35:26.841Z,86.49
2023-06-15T00:38:11.816Z,85.68
2023-06-15T00:40:57.246Z,86.06
2023-06-15T00:43:42.580Z,86.37
2023-06-15T00:46:27.971Z,86.97
2023-06-15T00:49:13.423Z,87.87
2023-06-15T00:51:58.450Z,90.12
2023-06-15T00:54:44.973Z,90.38
2023-06-15T00:57:31.342Z,90.83
2023-06-15T01:00:16.768Z,91.32
2023-06-15T01:03:02.703Z,90.93
2023-06-15T01:05:48.620Z,90.30
2023-06-15T01:08:33.945Z,89.71
2023-06-15T01:11:20.488Z,89.75
2023-06-15T01:14:06.054Z,89.72
2023-06-15T01:16:54.474Z,89.85
2023-06-15T01:19:46.092Z,89.84
2023-06-15T01:22:43.409Z,90.91
2023-06-15T01:25:28.306Z,91.64
2023-06-15T01:28:17.481Z,91.34
2023-06-15T01:31:03.173Z,90.25
2023-06-15T01:33:52.539Z,89.56
2023-06-15T01:36:38.210Z,89.81
2023-06-15T01:39:23.717Z,91.13
2023-06-15T01:42:09.314Z,93.28
2023-06-15T01:44:55.194Z,94.37
2023-06-15T01:47:41.147Z,94.98
2023-06-15T01:50:26.666Z,95.44
2023-06-15T01:53:12.174Z,96.09
2023-06-15T01:55:58.982Z,96.16
2023-06-15T01:58:44.196Z,96.54
2023-06-15T02:01:29.482Z,97.57
2023-06-15T02:04:14.831Z,97.58
2023-06-15T02:07:00.203Z,96.43
2023-06-15T02:09:45.737Z,96.10
2023-06-15T02:12:31.052Z,95.20
2023-06-15T02:15:16.380Z,95.33
2023-06-15T02:18:01.633Z,95.33
2023-06-15T02:20:46.983Z,94.71
2023-06-15T02:23:32.354Z,94.93
2023-06-15T02:26:17.781Z,95.19
2023-06-15T02:29:03.111Z,95.97
2023-06-15T02:31:48.575Z,95.53
2023-06-15T02:34:34.339Z,96.04
2023-06-15T02:37:19.302Z,96.49
2023-06-15T02:40:05.642Z,95.78
2023-06-15T02:42:50.892Z,96.66
2023-06-15T02:45:36.581Z,97.69
2023-06-15T02:48:21.857Z,99.70
2023-06-15T02:51:07.897Z,100.00
2023-06-15T02:53:53.421Z,100.00
2023-06-15T02:56:38.757Z,100.00
2023-06-15T02:59:24.581Z,100.00
2023-06-15T03:02:09.620Z,100.00
2023-06-15T03:04:54.981Z,100.00
2023-06-15T03:07:40.358Z,100.00
2023-06-15T03:10:25.713Z,100.00
2023-06-15T03:13:11.322Z,99.53
2023-06-15T03:15:56.709Z,98.59
2023-06-15T03:18:41.610Z,98.02
2023-06-15T03:21:26.945Z,99.32
2023-06-15T03:24:12.397Z,99.34
2023-06-15T03:26:59.472Z,100.00
2023-06-15T03:29:44.501Z,100.00
2023-06-15T03:32:29.882Z,100.00
2023-06-15T03:35:15.816Z,100.00
2023-06-15T03:38:01.009Z,100.00
2023-06-15T03:40:46.508Z,100.00
2023-06-15T03:43:31.814Z,100.00
2023-06-15T03:46:17.279Z,100.00
2023-06-15T03:49:02.809Z,100.00
2023-06-15T03:51:49.121Z,100.00
2023-06-15T03:54:34.599Z,100.00
2023-06-15T03:57:19.893Z,100.00
2023-06-15T04:00:07.830Z,100.00
2023-06-15T04:02:54.897Z,100.00
2023-06-15T04:05:40.395Z,100.00
2023-06-15T04:08:25.770Z,100.00
2023-06-15T04:11:11.044Z,100.00
2023-06-15T04:13:56.457Z,100.00
2023-06-15T04:16:41.886Z,100.00
2023-06-15T04:19:27.218Z,100.00
2023-06-15T04:22:12.766Z,100.00
2023-06-15T04:24:58.025Z,100.00
2023-06-15T04:27:43.462Z,100.00
2023-06-15T04:30:29.500Z,100.00
2023-06-15T04:33:14.764Z,100.00
2023-06-15T04:36:00.181Z,100.00
2023-06-15T04:38:45.438Z,100.00
2023-06-15T04:41:31.400Z,99.96
2023-06-15T04:44:16.397Z,98.18
2023-06-15T04:47:01.322Z,95.91
2023-06-15T04:49:46.654Z,94.56
2023-06-15T04:52:32.218Z,94.16
2023-06-15T04:55:17.761Z,95.37
2023-06-15T04:58:03.325Z,95.77
2023-06-15T05:00:48.587Z,95.06
2023-06-15T05:03:34.617Z,92.76
2023-06-15T05:06:19.623Z,92.18
2023-06-15T05:09:05.165Z,91.21
2023-06-15T05:11:50.337Z,89.97
2023-06-15T05:14:35.780Z,88.74
2023-06-15T05:17:20.865Z,87.82
2023-06-15T05:20:06.653Z,86.87
2023-06-15T05:22:52.067Z,85.93
2023-06-15T05:25:37.344Z,84.85
2023-06-15T05:28:22.729Z,83.37
2023-06-15T05:31:07.975Z,81.25
2023-06-15T05:33:53.963Z,81.29
2023-06-15T05:36:55.965Z,81.93
2023-06-15T05:39:42.534Z,82.32
2023-06-15T05:42:27.962Z,80.52
2023-06-15T05:45:15.082Z,78.49
2023-06-15T05:48:02.809Z,77.03
2023-06-15T05:50:48.126Z,76.46
2023-06-15T05:53:33.495Z,77.26
2023-06-15T05:56:18.801Z,76.67
2023-06-15T05:59:03.927Z,76.05
2023-06-15T06:01:49.098Z,72.00
2023-06-15T06:04:34.884Z,69.40
2023-06-15T06:07:20.370Z,68.91
2023-06-15T06:10:07.282Z,68.25
2023-06-15T06:12:53.663Z,66.71
2023-06-15T06:15:38.964Z,65.76
2023-06-15T06:18:24.346Z,64.89
2023-06-15T06:21:09.755Z,65.35
2023-06-15T06:23:55.061Z,64.58
2023-06-15T06:26:40.434Z,65.11
2023-06-15T06:29:25.359Z,64.59
2023-06-15T06:32:10.862Z,64.22
2023-06-15T06:34:56.169Z,64.78
2023-06-15T06:37:41.475Z,65.52
2023-06-15T06:40:27.324Z,65.85
2023-06-15T06:43:12.835Z,67.11
2023-06-15T06:45:58.343Z,68.80
2023-06-15T06:48:43.760Z,67.77
2023-06-15T06:51:28.986Z,66.57
2023-06-15T06:54:14.289Z,67.64
2023-06-15T06:57:00.091Z,67.74
2023-06-15T06:59:45.385Z,67.29
2023-06-15T07:02:30.824Z,66.16
2023-06-15T07:05:16.442Z,65.03
2023-06-15T07:08:02.042Z,63.54
2023-06-15T07:10:47.425Z,62.82
2023-06-15T07:13:32.940Z,62.39
2023-06-15T07:16:18.274Z,62.63
2023-06-15T07:19:03.820Z,61.64
2023-06-15T07:21:49.344Z,60.83
2023-06-15T07:24:34.772Z,60.77
2023-06-15T07:27:20.233Z,60.58
2023-06-15T07:30:06.167Z,59.80
2023-06-15T07:32:51.477Z,62.40
2023-06-15T07:35:37.016Z,60.85
2023-06-15T07:38:22.194Z,59.82
2023-06-15T07:41:07.933Z,59.98
2023-06-15T07:43:52.942Z,60.29
2023-06-15T07:46:38.463Z,59.70
2023-06-15T07:49:29.836Z,58.09
2023-06-15T07:52:26.194Z,56.90
2023-06-15T07:55:11.572Z,55.08
2023-06-15T07:57:56.996Z,56.42
2023-06-15T08:00:42.222Z,55.84
2023-06-15T08:03:27.588Z,53.78
2023-06-15T08:06:12.811Z,53.09
2023-06-15T08:08:58.479Z,52.98
2023-06-15T08:11:43.720Z,52.48
2023-06-15T08:14:28.822Z,52.05
2023-06-15T08:17:14.241Z,52.94
2023-06-15T08:20:01.168Z,51.73
2023-06-15T08:22:50.174Z,52.40
2023-06-15T08:25:37.368Z,51.51
2023-06-15T08:28:23.091Z,52.87
2023-06-15T08:31:08.562Z,51.75
2023-06-15T08:33:53.834Z,51.82
2023-06-15T08:36:39.267Z,49.82
2023-06-15T08:39:24.930Z,49.11
2023-06-15T08:42:10.003Z,48.44
2023-06-15T08:44:55.855Z,47.56
2023-06-15T08:47:42.108Z,47.90
2023-06-15T08:50:26.996Z,48.30
2023-06-15T08:53:13.836Z,48.35
2023-06-15T08:55:59.494Z,46.32
2023-06-15T08:58:44.970Z,46.69
2023-06-15T09:01:31.841Z,47.55
2023-06-15T09:04:18.341Z,45.74
2023-06-15T09:07:04.357Z,45.92
2023-06-15T09:10:11.600Z,46.44
2023-06-15T09:12:58.500Z,45.00
2023-06-15T09:15:44.095Z,44.14
2023-06-15T09:18:29.959Z,44.05
2023-06-15T09:21:18.220Z,43.63
2023-06-15T09:24:05.094Z,41.89
2023-06-15T09:26:50.450Z,41.68
2023-06-15T09:29:36.213Z,40.91
2023-06-15T09:32:21.808Z,42.28
2023-06-15T09:35:07.213Z,41.26
2023-06-15T09:37:56.334Z,41.50
2023-06-15T09:40:41.384Z,41.62
2023-06-15T09:43:30.426Z,39.33
2023-06-15T09:46:16.857Z,38.63
2023-06-15T09:49:04.921Z,38.30
2023-06-15T09:51:50.808Z,38.19
2023-06-15T09:54:36.151Z,38.57
2023-06-15T09:57:21.352Z,38.01
2023-06-15T10:00:07.455Z,37.93
2023-06-15T10:02:53.224Z,37.33
2023-06-15T10:05:41.574Z,36.48
2023-06-15T10:08:27.697Z,37.13
2023-06-15T10:11:13.299Z,36.76
2023-06-15T10:14:06.149Z,36.39
2023-06-15T10:17:04.924Z,36.28
2023-06-15T10:19:54.521Z,35.73
2023-06-15T10:22:56.105Z,34.98
2023-06-15T10:25:43.558Z,36.08
2023-06-15T10:28:33.162Z,36.21
2023-06-15T10:31:30.295Z,34.78
2023-06-15T10:34:40.153Z,36.42
2023-06-15T10:37:34.340Z,37.29
2023-06-15T10:40:31.628Z,36.75
2023-06-15T10:43:18.200Z,36.30
2023-06-15T10:46:03.622Z,35.15
2023-06-15T10:48:53.919Z,36.14
2023-06-15T10:51:51.021Z,36.29
2023-06-15T10:54:36.806Z,37.09
2023-06-15T10:57:27.585Z,37.21
2023-06-15T11:00:13.580Z,35.62
2023-06-15T11:02:58.882Z,34.82
2023-06-15T11:05:44.278Z,35.26
2023-06-15T11:08:42.002Z,34.77
2023-06-15T11:11:32.724Z,33.94
2023-06-15T11:14:21.723Z,35.05
2023-06-15T11:17:07.083Z,35.85
2023-06-15T11:19:52.164Z,36.66
2023-06-15T11:22:37.833Z,36.29
2023-06-15T11:25:23.038Z,35.62
2023-06-15T11:28:11.560Z,34.00
2023-06-15T11:31:03.263Z,33.34
2023-06-15T11:33:48.517Z,33.46
2023-06-15T11:36:33.964Z,33.11
2023-06-15T11:39:23.657Z,33.18
2023-06-15T11:42:10.049Z,33.77
2023-06-15T11:44:55.654Z,34.33
2023-06-15T11:47:42.036Z,33.93
2023-06-15T11:50:27.347Z,33.68
2023-06-15T11:53:16.474Z,33.24
2023-06-15T11:56:02.344Z,32.85
2023-06-15T11:58:49.284Z,32.90
2023-06-15T12:01:36.959Z,31.71
2023-06-15T12:04:22.104Z,31.75
2023-06-15T12:07:07.480Z,31.16
2023-06-15T12:09:53.250Z,31.98
2023-06-15T12:12:38.588Z,32.72
2023-06-15T12:15:24.201Z,30.83
2023-06-15T12:18:09.704Z,30.46
2023-06-15T12:20:54.801Z,29.42
2023-06-15T12:23:40.411Z,30.22
2023-06-15T12:26:33.679Z,31.80
2023-06-15T12:29:21.110Z,31.97
2023-06-15T12:32:06.577Z,30.77
2023-06-15T12:34:52.021Z,32.03
2023-06-15T12:37:50.168Z,31.54
2023-06-15T12:40:43.314Z,30.11
2023-06-15T12:43:28.343Z,30.44
2023-06-15T12:46:13.938Z,31.08
2023-06-15T12:48:59.564Z,30.59
2023-06-15T12:51:45.040Z,30.43
2023-06-15T12:54:30.440Z,29.08
2023-06-15T12:57:15.778Z,28.82
2023-06-15T13:00:01.211Z,28.53
2023-06-15T13:02:47.146Z,27.92
2023-06-15T13:05:32.187Z,27.87
2023-06-15T13:08:17.455Z,28.49
2023-06-15T13:11:02.979Z,28.92
2023-06-15T13:13:48.163Z,27.88
2023-06-15T13:16:33.626Z,27.16
2023-06-15T13:19:19.053Z,27.28
2023-06-15T13:22:04.420Z,28.07
2023-06-15T13:24:49.894Z,28.78
2023-06-15T13:27:35.487Z,29.55
2023-06-15T13:30:20.881Z,28.68
2023-06-15T13:33:06.418Z,30.25
2023-06-15T13:35:51.530Z,30.39
2023-06-15T13:38:37.037Z,30.10
2023-06-15T13:41:22.578Z,30.41
2023-06-15T13:44:07.900Z,30.88
2023-06-15T13:46:53.351Z,31.29
2023-06-15T13:49:38.496Z,30.84
2023-06-15T13:52:23.454Z,31.02
2023-06-15T13:55:09.536Z,31.56
2023-06-15T13:57:54.635Z,31.04
2023-06-15T14:00:39.681Z,31.09
2023-06-15T14:03:25.149Z,31.84
2023-06-15T14:06:10.585Z,32.22
2023-06-15T14:08:56.024Z,32.55
2023-06-15T14:11:40.931Z,32.01
2023-06-15T14:14:27.750Z,31.95
2023-06-15T14:17:13.859Z,32.18
2023-06-15T14:19:59.045Z,32.85
2023-06-15T14:22:44.262Z,32.23
2023-06-15T14:25:29.633Z,31.62
2023-06-15T14:28:16.075Z,32.39
2023-06-15T14:31:01.800Z,32.32
2023-06-15T14:33:47.046Z,31.94
2023-06-15T14:36:32.269Z,32.10
2023-06-15T14:39:18.133Z,31.81
2023-06-15T14:42:03.923Z,32.67
2023-06-15T14:44:49.458Z,32.63
2023-06-15T14:47:35.884Z,34.44
2023-06-15T14:50:22.154Z,32.21
2023-06-15T14:53:07.592Z,31.75
2023-06-15T14:55:52.865Z,31.34
2023-06-15T14:58:38.251Z,31.37
2023-06-15T15:01:23.895Z,33.15
2023-06-15T15:04:09.150Z,33.87
2023-06-15T15:06:54.667Z,33.07
2023-06-15T15:09:40.152Z,34.27
2023-06-15T15:12:25.950Z,34.87
2023-06-15T15:15:11.811Z,35.13
2023-06-15T15:17:57.165Z,37.12
2023-06-15T15:20:42.504Z,37.15
2023-06-15T15:23:27.885Z,34.51
2023-06-15T15:26:13.377Z,33.58
2023-06-15T15:28:59.190Z,33.74
2023-06-15T15:31:45.075Z,33.74
2023-06-15T15:34:31.562Z,34.26
2023-06-15T15:37:18.077Z,33.36
2023-06-15T15:40:03.367Z,33.68
2023-06-15T15:42:48.360Z,35.20
2023-06-15T15:45:35.959Z,34.76
2023-06-15T15:48:21.095Z,34.06
2023-06-15T15:51:07.713Z,34.28
2023-06-15T15:53:53.037Z,34.97
2023-06-15T15:56:38.315Z,35.94
2023-06-15T15:59:23.569Z,35.28
2023-06-15T16:02:09.293Z,34.23
2023-06-15T16:04:54.667Z,34.67
2023-06-15T16:07:40.960Z,34.79
2023-06-15T16:10:26.432Z,34.89
2023-06-15T16:13:11.920Z,35.47
2023-06-15T16:18:47.685Z,36.72
2023-06-15T16:21:33.193Z,36.72
2023-06-15T16:24:19.853Z,37.30
2023-06-15T16:27:05.628Z,37.23
2023-06-15T16:29:51.134Z,38.02
2023-06-15T16:32:37.779Z,36.60
2023-06-15T16:35:23.025Z,37.02
2023-06-15T16:38:08.504Z,37.48
2023-06-15T16:40:53.993Z,37.81
2023-06-15T16:43:39.334Z,36.28
2023-06-15T16:46:24.802Z,36.49
2023-06-15T16:49:10.105Z,36.77
2023-06-15T16:51:55.703Z,37.34
2023-06-15T16:54:41.653Z,38.02
2023-06-15T16:57:27.220Z,38.36
2023-06-15T17:00:12.845Z,38.19
2023-06-15T17:02:58.239Z,38.58
2023-06-15T17:05:43.583Z,38.76
2023-06-15T17:08:28.834Z,38.95
2023-06-15T17:11:14.252Z,39.42
2023-06-15T17:13:59.846Z,39.75
2023-06-15T17:16:45.968Z,40.31
2023-06-15T17:19:31.552Z,40.36
2023-06-15T17:22:16.725Z,40.85
2023-06-15T17:25:02.157Z,40.85
2023-06-15T17:27:47.309Z,41.24
2023-06-15T17:30:32.695Z,40.99
2023-06-15T17:33:18.058Z,41.00
2023-06-15T17:36:03.545Z,40.72
2023-06-15T17:38:48.785Z,40.49
2023-06-15T17:41:34.255Z,40.78
2023-06-15T17:44:19.866Z,41.25
2023-06-15T17:47:05.284Z,40.19
2023-06-15T17:49:50.472Z,40.60
2023-06-15T17:52:37.329Z,40.91
2023-06-15T17:55:23.259Z,41.09
2023-06-15T17:58:08.534Z,40.57
2023-06-15T18:00:53.886Z,41.10
2023-06-15T18:03:39.899Z,42.08
2023-06-15T18:06:25.214Z,41.94
2023-06-15T18:09:10.565Z,41.66
2023-06-15T18:11:55.944Z,41.11
2023-06-15T18:14:41.545Z,42.10
2023-06-15T18:17:26.973Z,42.01
2023-06-15T18:20:12.322Z,42.47
2023-06-15T18:22:57.518Z,42.69
2023-06-15T18:25:42.871Z,42.74
2023-06-15T18:28:28.358Z,43.13
2023-06-15T18:31:13.834Z,42.69
2023-06-15T18:33:58.973Z,42.74
2023-06-15T18:36:44.356Z,43.38
2023-06-15T18:39:29.619Z,43.44
2023-06-15T18:42:16.039Z,43.50
2023-06-15T18:45:01.435Z,43.88
2023-06-15T18:47:47.094Z,43.51
2023-06-15T18:50:32.355Z,43.79
2023-06-15T18:53:17.776Z,44.43
2023-06-15T18:56:03.347Z,43.94
2023-06-15T18:58:48.957Z,44.29
2023-06-15T19:01:34.417Z,44.24
2023-06-15T19:04:19.767Z,44.54
2023-06-15T19:07:05.532Z,44.82
2023-06-15T19:09:50.582Z,45.24
2023-06-15T19:12:35.982Z,44.98
2023-06-15T19:15:21.675Z,45.60
2023-06-15T19:18:07.080Z,45.62
2023-06-15T19:20:52.308Z,45.56
2023-06-15T19:23:37.615Z,46.29
2023-06-15T19:26:22.941Z,45.78
2023-06-15T19:29:08.360Z,45.86
2023-06-15T19:31:53.899Z,46.62
2023-06-15T19:34:39.092Z,45.98
2023-06-15T19:37:24.481Z,46.74
2023-06-15T19:40:10.253Z,47.23
2023-06-15T19:42:55.612Z,48.26
2023-06-15T19:45:41.125Z,48.26
2023-06-15T19:48:27.432Z,47.36
2023-06-15T19:51:12.731Z,46.26
2023-06-15T19:53:58.361Z,46.21
2023-06-15T19:56:43.569Z,45.29
2023-06-15T19:59:29.088Z,45.24
2023-06-15T20:02:14.789Z,45.86
2023-06-15T20:04:59.965Z,45.76
2023-06-15T20:07:45.389Z,45.78
2023-06-15T20:10:30.631Z,45.99
2023-06-15T20:13:16.046Z,45.92
2023-06-15T20:16:05.438Z,45.29
2023-06-15T20:18:52.524Z,45.79
2023-06-15T20:21:37.478Z,45.95
2023-06-15T20:24:22.940Z,46.51
2023-06-15T20:27:08.349Z,47.03
2023-06-15T20:29:53.766Z,47.57
2023-06-15T20:32:39.217Z,47.62
2023-06-15T20:35:25.046Z,48.50
2023-06-15T20:38:10.532Z,48.81
2023-06-15T20:40:55.972Z,49.04
2023-06-15T20:43:41.424Z,49.33
2023-06-15T20:46:26.826Z,49.98
2023-06-15T20:49:12.180Z,50.11
2023-06-15T20:51:57.799Z,50.97
2023-06-15T20:54:43.118Z,52.99
2023-06-15T20:57:28.637Z,54.48
2023-06-15T21:00:14.419Z,55.77
2023-06-15T21:03:00.117Z,56.68
2023-06-15T21:05:45.570Z,56.80
2023-06-15T21:08:30.944Z,56.74
2023-06-15T21:11:16.129Z,57.73
2023-06-15T21:14:01.592Z,57.48
2023-06-15T21:16:46.955Z,57.25
2023-06-15T21:19:32.632Z,56.64
2023-06-15T21:22:18.016Z,56.40
2023-06-15T21:25:04.049Z,57.78
2023-06-15T21:27:49.244Z,58.93
2023-06-15T21:30:34.393Z,57.86
2023-06-15T21:33:19.719Z,57.34
2023-06-15T21:36:05.723Z,57.86
2023-06-15T21:38:51.037Z,57.83
2023-06-15T21:41:36.366Z,55.86
2023-06-15T21:44:21.600Z,55.51
2023-06-15T21:47:06.956Z,56.27
2023-06-15T21:49:52.474Z,57.60
2023-06-15T21:52:37.963Z,57.50
2023-06-15T21:55:23.473Z,56.58
2023-06-15T21:58:08.762Z,56.90
2023-06-15T22:00:54.255Z,57.94
2023-06-15T22:03:40.050Z,57.45
2023-06-15T22:06:25.189Z,57.41
2023-06-15T22:09:10.539Z,59.01
2023-06-15T22:11:56.210Z,61.43
2023-06-15T22:14:41.321Z,61.18
2023-06-15T22:17:26.523Z,63.28
2023-06-15T22:20:12.800Z,61.86
2023-06-15T22:22:58.036Z,63.06
2023-06-15T22:25:54.559Z,63.24
2023-06-15T22:28:41.847Z,64.03
2023-06-15T22:31:27.416Z,63.61
2023-06-15T22:34:12.685Z,63.62
2023-06-15T22:36:58.179Z,64.72
2023-06-15T22:39:43.556Z,65.21
2023-06-15T22:42:28.875Z,66.35
2023-06-15T22:45:14.438Z,62.43
2023-06-15T22:47:59.861Z,60.22
2023-06-15T22:50:45.224Z,64.11
2023-06-15T22:53:30.628Z,65.85
2023-06-15T22:56:16.307Z,65.31
2023-06-15T22:59:01.612Z,65.63
2023-06-15T23:01:46.933Z,66.00
2023-06-15T23:04:32.545Z,63.85
2023-06-15T23:07:17.717Z,61.98
2023-06-15T23:10:02.853Z,61.53
2023-06-15T23:12:48.382Z,61.32
2023-06-15T23:15:33.831Z,61.47
2023-06-15T23:18:20.664Z,62.57
2023-06-15T23:21:05.641Z,61.86
2023-06-15T23:26:54.206Z,62.71
2023-06-15T23:29:39.660Z,66.38
2023-06-15T23:32:25.152Z,67.11
2023-06-15T23:35:10.416Z,68.07
2023-06-15T23:37:55.974Z,69.38
2023-06-15T23:40:41.510Z,69.74
2023-06-15T23:43:26.756Z,70.29
2023-06-15T23:46:12.185Z,69.61
2023-06-15T23:48:57.429Z,68.58
2023-06-15T23:51:42.891Z,68.62
2023-06-15T23:54:28.205Z,68.84
2023-06-15T23:57:13.729Z,68.65
2023-06-15T23:59:59.160Z,68.97
